sensor_id;sensor_type;location;lat;lon;timestamp;pressure;altitude;pressure_sealevel;temperature;humidity
13934;BME280;7039;52.168;9.866;2022-10-30T00:01:28;100737.22;;;18.06;73.46
13934;BME280;7039;52.168;9.866;2022-10-30T00:03:55;100745.97;;;18.18;72.60
13934;BME280;7039;52.168;9.866;2022-10-30T00:06:21;100737.78;;;17.98;73.55
13934;BME280;7039;52.168;9.866;2022-10-30T00:08:47;100748.34;;;17.87;72.14
13934;BME280;7039;52.168;9.866;2022-10-30T00:11:14;100753.28;;;18.03;72.03
13934;BME280;7039;52.168;9.866;2022-10-30T00:13:42;100758.47;;;18.27;70.27
13934;BME280;7039;52.168;9.866;2022-10-30T00:16:09;100754.25;;;18.58;68.77
13934;BME280;7039;52.168;9.866;2022-10-30T00:18:36;100745.84;;;18.53;68.57
13934;BME280;7039;52.168;9.866;2022-10-30T00:21:05;100745.72;;;18.54;68.87
13934;BME280;7039;52.168;9.866;2022-10-30T00:23:32;100747.28;;;18.68;68.27
13934;BME280;7039;52.168;9.866;2022-10-30T00:26:01;100739.94;;;18.72;68.05
13934;BME280;7039;52.168;9.866;2022-10-30T00:28:28;100730.84;;;18.65;68.78
13934;BME280;7039;52.168;9.866;2022-10-30T00:30:58;100728.28;;;18.74;68.39
13934;BME280;7039;52.168;9.866;2022-10-30T00:33:25;100726.72;;;18.94;66.99
13934;BME280;7039;52.168;9.866;2022-10-30T00:35:51;100717.81;;;18.95;66.78
13934;BME280;7039;52.168;9.866;2022-10-30T00:38:18;100721.31;;;18.85;67.79
13934;BME280;7039;52.168;9.866;2022-10-30T00:40:44;100729.13;;;18.86;67.85
13934;BME280;7039;52.168;9.866;2022-10-30T00:43:28;100734.88;;;18.91;67.27
13934;BME280;7039;52.168;9.866;2022-10-30T00:45:57;100735.78;;;18.81;68.72
13934;BME280;7039;52.168;9.866;2022-10-30T00:48:26;100732.41;;;18.67;68.53
13934;BME280;7039;52.168;9.866;2022-10-30T00:50:54;100732.75;;;18.74;68.37
13934;BME280;7039;52.168;9.866;2022-10-30T00:53:23;100720.75;;;18.70;68.84
13934;BME280;7039;52.168;9.866;2022-10-30T00:55:53;100722.78;;;18.66;68.72
13934;BME280;7039;52.168;9.866;2022-10-30T00:58:24;100730.69;;;18.66;68.78
13934;BME280;7039;52.168;9.866;2022-10-30T01:00:54;100725.31;;;18.68;68.88
13934;BME280;7039;52.168;9.866;2022-10-30T01:03:23;100716.56;;;18.78;67.91
13934;BME280;7039;52.168;9.866;2022-10-30T01:05:55;100719.06;;;18.80;67.46
13934;BME280;7039;52.168;9.866;2022-10-30T01:08:22;100724.91;;;18.95;66.87
13934;BME280;7039;52.168;9.866;2022-10-30T01:10:49;100719.16;;;18.90;68.00
13934;BME280;7039;52.168;9.866;2022-10-30T01:13:17;100713.03;;;18.78;67.63
13934;BME280;7039;52.168;9.866;2022-10-30T01:15:52;100728.56;;;18.71;68.34
13934;BME280;7039;52.168;9.866;2022-10-30T01:18:33;100725.75;;;18.73;68.14
13934;BME280;7039;52.168;9.866;2022-10-30T01:21:10;100738.28;;;18.60;69.93
13934;BME280;7039;52.168;9.866;2022-10-30T01:23:51;100739.00;;;18.39;70.87
13934;BME280;7039;52.168;9.866;2022-10-30T01:26:29;100735.06;;;18.22;70.14
13934;BME280;7039;52.168;9.866;2022-10-30T01:29:12;100746.47;;;18.34;70.33
13934;BME280;7039;52.168;9.866;2022-10-30T01:31:51;100745.38;;;18.36;70.25
13934;BME280;7039;52.168;9.866;2022-10-30T01:34:28;100740.34;;;18.45;69.93
13934;BME280;7039;52.168;9.866;2022-10-30T01:37:02;100736.59;;;18.70;68.34
13934;BME280;7039;52.168;9.866;2022-10-30T01:39:32;100720.84;;;18.80;67.22
13934;BME280;7039;52.168;9.866;2022-10-30T01:42:07;100724.81;;;18.74;67.39
13934;BME280;7039;52.168;9.866;2022-10-30T01:44:34;100719.53;;;18.74;67.47
13934;BME280;7039;52.168;9.866;2022-10-30T01:47:11;100713.91;;;18.78;67.35
13934;BME280;7039;52.168;9.866;2022-10-30T01:49:56;100721.19;;;18.75;67.21
13934;BME280;7039;52.168;9.866;2022-10-30T01:52:34;100710.63;;;18.75;67.11
13934;BME280;7039;52.168;9.866;2022-10-30T01:55:10;100709.91;;;18.84;66.76
13934;BME280;7039;52.168;9.866;2022-10-30T01:57:42;100710.19;;;18.81;66.80
13934;BME280;7039;52.168;9.866;2022-10-30T02:00:14;100710.75;;;18.85;66.45
13934;BME280;7039;52.168;9.866;2022-10-30T02:02:42;100711.84;;;18.82;66.87
13934;BME280;7039;52.168;9.866;2022-10-30T02:05:11;100718.94;;;18.82;67.16
13934;BME280;7039;52.168;9.866;2022-10-30T02:07:41;100718.44;;;18.76;67.95
13934;BME280;7039;52.168;9.866;2022-10-30T02:10:10;100710.75;;;18.73;67.57
13934;BME280;7039;52.168;9.866;2022-10-30T02:12:36;100722.19;;;18.74;67.88
13934;BME280;7039;52.168;9.866;2022-10-30T02:15:03;100709.56;;;18.77;67.49
13934;BME280;7039;52.168;9.866;2022-10-30T02:17:30;100710.19;;;18.81;66.64
13934;BME280;7039;52.168;9.866;2022-10-30T02:19:56;100705.72;;;18.82;67.25
13934;BME280;7039;52.168;9.866;2022-10-30T02:22:24;100722.41;;;18.71;67.03
13934;BME280;7039;52.168;9.866;2022-10-30T02:24:51;100709.69;;;18.76;67.16
13934;BME280;7039;52.168;9.866;2022-10-30T02:27:17;100718.94;;;18.82;67.05
13934;BME280;7039;52.168;9.866;2022-10-30T02:29:44;100708.25;;;18.83;66.68
13934;BME280;7039;52.168;9.866;2022-10-30T02:32:10;100717.84;;;18.84;67.27
13934;BME280;7039;52.168;9.866;2022-10-30T02:34:37;100722.41;;;18.71;68.35
13934;BME280;7039;52.168;9.866;2022-10-30T02:37:03;100719.31;;;18.77;67.07
13934;BME280;7039;52.168;9.866;2022-10-30T02:39:31;100722.78;;;18.77;67.06
13934;BME280;7039;52.168;9.866;2022-10-30T02:41:57;100720.63;;;18.83;67.06
13934;BME280;7039;52.168;9.866;2022-10-30T02:44:26;100726.59;;;18.73;67.97
13934;BME280;7039;52.168;9.866;2022-10-30T02:46:52;100730.59;;;18.68;67.80
13934;BME280;7039;52.168;9.866;2022-10-30T02:49:19;100729.97;;;18.64;68.21
13934;BME280;7039;52.168;9.866;2022-10-30T02:51:45;100727.13;;;18.67;67.83
13934;BME280;7039;52.168;9.866;2022-10-30T02:54:11;100727.47;;;18.63;68.23
13934;BME280;7039;52.168;9.866;2022-10-30T02:56:40;100722.69;;;18.34;69.10
13934;BME280;7039;52.168;9.866;2022-10-30T02:59:06;100720.03;;;18.45;69.76
13934;BME280;7039;52.168;9.866;2022-10-30T03:01:33;100721.25;;;18.41;69.61
13934;BME280;7039;52.168;9.866;2022-10-30T03:03:59;100721.38;;;18.40;69.70
13934;BME280;7039;52.168;9.866;2022-10-30T03:06:26;100719.09;;;18.35;70.07
13934;BME280;7039;52.168;9.866;2022-10-30T03:08:52;100723.66;;;18.33;70.04
13934;BME280;7039;52.168;9.866;2022-10-30T03:11:19;100718.25;;;18.12;69.10
13934;BME280;7039;52.168;9.866;2022-10-30T03:13:48;100730.97;;;18.07;71.42
13934;BME280;7039;52.168;9.866;2022-10-30T03:16:17;100728.66;;;17.91;73.51
13934;BME280;7039;52.168;9.866;2022-10-30T03:18:43;100732.16;;;18.03;73.32
13934;BME280;7039;52.168;9.866;2022-10-30T03:21:12;100734.56;;;17.94;73.48
13934;BME280;7039;52.168;9.866;2022-10-30T03:23:39;100735.66;;;18.03;73.03
13934;BME280;7039;52.168;9.866;2022-10-30T03:26:06;100735.41;;;18.06;72.60
13934;BME280;7039;52.168;9.866;2022-10-30T03:28:32;100731.19;;;17.92;73.72
13934;BME280;7039;52.168;9.866;2022-10-30T03:31:02;100732.88;;;17.93;74.18
13934;BME280;7039;52.168;9.866;2022-10-30T03:33:29;100738.41;;;17.90;73.83
13934;BME280;7039;52.168;9.866;2022-10-30T03:35:56;100729.78;;;17.64;75.17
13934;BME280;7039;52.168;9.866;2022-10-30T03:38:23;100729.44;;;17.69;75.43
13934;BME280;7039;52.168;9.866;2022-10-30T03:40:49;100728.81;;;17.54;76.48
13934;BME280;7039;52.168;9.866;2022-10-30T03:43:16;100731.03;;;17.36;77.21
13934;BME280;7039;52.168;9.866;2022-10-30T03:45:45;100729.81;;;17.29;78.23
13934;BME280;7039;52.168;9.866;2022-10-30T03:48:14;100738.09;;;17.36;77.36
13934;BME280;7039;52.168;9.866;2022-10-30T03:50:41;100739.03;;;17.35;77.64
13934;BME280;7039;52.168;9.866;2022-10-30T03:53:07;100738.97;;;17.23;77.39
13934;BME280;7039;52.168;9.866;2022-10-30T03:55:34;100741.03;;;17.20;77.74
13934;BME280;7039;52.168;9.866;2022-10-30T03:58:00;100743.16;;;17.15;78.34
13934;BME280;7039;52.168;9.866;2022-10-30T04:00:27;100734.34;;;17.27;77.01
13934;BME280;7039;52.168;9.866;2022-10-30T04:02:53;100735.25;;;17.15;77.65
13934;BME280;7039;52.168;9.866;2022-10-30T04:05:22;100740.19;;;17.19;76.57
13934;BME280;7039;52.168;9.866;2022-10-30T04:07:54;100737.22;;;17.24;75.36
13934;BME280;7039;52.168;9.866;2022-10-30T04:10:21;100743.91;;;17.28;76.56
13934;BME280;7039;52.168;9.866;2022-10-30T04:12:47;100741.03;;;17.20;77.05
13934;BME280;7039;52.168;9.866;2022-10-30T04:15:14;100748.78;;;17.10;78.04
13934;BME280;7039;52.168;9.866;2022-10-30T04:17:47;100744.63;;;16.95;79.47
13934;BME280;7039;52.168;9.866;2022-10-30T04:20:13;100750.72;;;16.95;78.89
13934;BME280;7039;52.168;9.866;2022-10-30T04:22:41;100740.00;;;16.73;80.29
13934;BME280;7039;52.168;9.866;2022-10-30T04:25:08;100751.59;;;16.70;79.81
13934;BME280;7039;52.168;9.866;2022-10-30T04:27:38;100741.22;;;16.56;80.15
13934;BME280;7039;52.168;9.866;2022-10-30T04:30:06;100736.97;;;16.53;79.39
13934;BME280;7039;52.168;9.866;2022-10-30T04:32:32;100729.53;;;16.47;80.06
13934;BME280;7039;52.168;9.866;2022-10-30T04:34:59;100731.34;;;16.34;81.26
13934;BME280;7039;52.168;9.866;2022-10-30T04:37:25;100735.47;;;16.25;81.43
13934;BME280;7039;52.168;9.866;2022-10-30T04:39:53;100733.69;;;16.13;81.70
13934;BME280;7039;52.168;9.866;2022-10-30T04:42:20;100736.00;;;16.04;82.39
13934;BME280;7039;52.168;9.866;2022-10-30T04:44:46;100727.69;;;16.11;82.10
13934;BME280;7039;52.168;9.866;2022-10-30T04:47:12;100736.19;;;16.14;81.90
13934;BME280;7039;52.168;9.866;2022-10-30T04:49:41;100740.44;;;16.04;81.63
13934;BME280;7039;52.168;9.866;2022-10-30T04:52:07;100743.25;;;16.01;81.70
13934;BME280;7039;52.168;9.866;2022-10-30T04:54:34;100743.69;;;15.95;81.91
13934;BME280;7039;52.168;9.866;2022-10-30T04:57:02;100744.31;;;15.85;82.45
13934;BME280;7039;52.168;9.866;2022-10-30T04:59:28;100744.63;;;15.81;82.85
13934;BME280;7039;52.168;9.866;2022-10-30T05:01:55;100738.72;;;15.77;82.92
13934;BME280;7039;52.168;9.866;2022-10-30T05:04:21;100739.38;;;15.81;82.17
13934;BME280;7039;52.168;9.866;2022-10-30T05:06:48;100731.88;;;15.75;82.89
13934;BME280;7039;52.168;9.866;2022-10-30T05:09:14;100737.97;;;15.75;83.15
13934;BME280;7039;52.168;9.866;2022-10-30T05:11:41;100732.16;;;15.70;82.58
13934;BME280;7039;52.168;9.866;2022-10-30T05:14:08;100720.63;;;15.73;82.45
13934;BME280;7039;52.168;9.866;2022-10-30T05:16:35;100721.69;;;15.83;81.88
13934;BME280;7039;52.168;9.866;2022-10-30T05:19:01;100714.84;;;15.93;81.49
13934;BME280;7039;52.168;9.866;2022-10-30T05:21:28;100721.69;;;15.96;79.75
13934;BME280;7039;52.168;9.866;2022-10-30T05:23:54;100726.84;;;16.10;79.32
13934;BME280;7039;52.168;9.866;2022-10-30T05:26:21;100734.94;;;16.20;78.98
13934;BME280;7039;52.168;9.866;2022-10-30T05:28:47;100715.25;;;16.25;78.65
13934;BME280;7039;52.168;9.866;2022-10-30T05:31:15;100719.25;;;16.31;78.48
13934;BME280;7039;52.168;9.866;2022-10-30T05:33:41;100722.16;;;16.39;78.03
13934;BME280;7039;52.168;9.866;2022-10-30T05:36:08;100724.69;;;16.41;77.80
13934;BME280;7039;52.168;9.866;2022-10-30T05:38:34;100719.84;;;16.35;77.80
13934;BME280;7039;52.168;9.866;2022-10-30T05:41:01;100728.06;;;16.56;77.06
13934;BME280;7039;52.168;9.866;2022-10-30T05:43:27;100731.00;;;16.51;77.06
13934;BME280;7039;52.168;9.866;2022-10-30T05:45:54;100730.28;;;16.36;77.81
13934;BME280;7039;52.168;9.866;2022-10-30T05:48:22;100723.78;;;16.29;78.07
13934;BME280;7039;52.168;9.866;2022-10-30T05:50:48;100734.22;;;16.31;77.18
13934;BME280;7039;52.168;9.866;2022-10-30T05:53:15;100741.25;;;16.04;77.70
13934;BME280;7039;52.168;9.866;2022-10-30T05:55:41;100737.81;;;16.04;78.48
13934;BME280;7039;52.168;9.866;2022-10-30T05:58:08;100745.16;;;15.99;78.69
13934;BME280;7039;52.168;9.866;2022-10-30T06:00:35;100741.81;;;15.97;78.75
13934;BME280;7039;52.168;9.866;2022-10-30T06:03:05;100741.88;;;15.82;79.08
13934;BME280;7039;52.168;9.866;2022-10-30T06:05:36;100735.50;;;15.59;80.38
13934;BME280;7039;52.168;9.866;2022-10-30T06:08:04;100731.09;;;15.60;80.96
13934;BME280;7039;52.168;9.866;2022-10-30T06:10:31;100744.97;;;15.49;82.14
13934;BME280;7039;52.168;9.866;2022-10-30T06:12:59;100746.53;;;15.52;81.58
13934;BME280;7039;52.168;9.866;2022-10-30T06:15:26;100735.19;;;15.51;81.81
13934;BME280;7039;52.168;9.866;2022-10-30T06:17:53;100752.84;;;15.49;81.51
13934;BME280;7039;52.168;9.866;2022-10-30T06:20:21;100744.38;;;15.31;82.04
13934;BME280;7039;52.168;9.866;2022-10-30T06:22:53;100757.41;;;15.33;82.42
13934;BME280;7039;52.168;9.866;2022-10-30T06:25:20;100764.88;;;15.26;82.42
13934;BME280;7039;52.168;9.866;2022-10-30T06:27:47;100777.75;;;15.16;82.49
13934;BME280;7039;52.168;9.866;2022-10-30T06:30:13;100770.81;;;15.15;83.04
13934;BME280;7039;52.168;9.866;2022-10-30T06:32:40;100773.78;;;15.23;82.75
13934;BME280;7039;52.168;9.866;2022-10-30T06:35:07;100774.03;;;15.33;82.57
13934;BME280;7039;52.168;9.866;2022-10-30T09:40:01;100841.16;;;19.93;68.17
13934;BME280;7039;52.168;9.866;2022-10-30T09:42:40;100841.00;;;19.85;70.40
13934;BME280;7039;52.168;9.866;2022-10-30T09:48:40;100847.56;;;20.12;67.33
13934;BME280;7039;52.168;9.866;2022-10-30T09:51:20;100852.34;;;20.39;66.80
13934;BME280;7039;52.168;9.866;2022-10-30T09:53:59;100850.56;;;20.70;65.76
13934;BME280;7039;52.168;9.866;2022-10-30T09:56:35;100850.59;;;20.80;65.20
13934;BME280;7039;52.168;9.866;2022-10-30T09:59:12;100849.06;;;20.77;65.73
13934;BME280;7039;52.168;9.866;2022-10-30T10:01:46;100852.53;;;20.78;65.53
13934;BME280;7039;52.168;9.866;2022-10-30T10:04:22;100838.72;;;20.74;65.56
13934;BME280;7039;52.168;9.866;2022-10-30T10:06:55;100842.22;;;20.75;67.18
13934;BME280;7039;52.168;9.866;2022-10-30T10:09:24;100834.44;;;20.83;65.47
13934;BME280;7039;52.168;9.866;2022-10-30T10:11:55;100832.41;;;20.96;66.92
13934;BME280;7039;52.168;9.866;2022-10-30T10:14:26;100831.00;;;21.12;65.22
13934;BME280;7039;52.168;9.866;2022-10-30T10:16:55;100835.78;;;21.18;65.58
13934;BME280;7039;52.168;9.866;2022-10-30T10:19:29;100838.31;;;21.29;65.05
13934;BME280;7039;52.168;9.866;2022-10-30T10:21:58;100830.84;;;21.44;65.53
13934;BME280;7039;52.168;9.866;2022-10-30T10:24:27;100830.81;;;21.63;63.59
13934;BME280;7039;52.168;9.866;2022-10-30T10:27:00;100837.09;;;21.82;62.00
13934;BME280;7039;52.168;9.866;2022-10-30T10:29:40;100838.09;;;21.90;62.19
13934;BME280;7039;52.168;9.866;2022-10-30T10:32:18;100836.97;;;22.03;62.63
13934;BME280;7039;52.168;9.866;2022-10-30T10:35:05;100840.81;;;22.18;61.68
13934;BME280;7039;52.168;9.866;2022-10-30T10:37:45;100836.13;;;22.22;62.16
13934;BME280;7039;52.168;9.866;2022-10-30T10:40:21;100825.34;;;22.23;61.72
13934;BME280;7039;52.168;9.866;2022-10-30T10:43:03;100826.41;;;22.40;62.31
13934;BME280;7039;52.168;9.866;2022-10-30T10:45:40;100838.09;;;22.57;62.01
13934;BME280;7039;52.168;9.866;2022-10-30T10:48:47;100830.09;;;22.67;59.02
13934;BME280;7039;52.168;9.866;2022-10-30T10:54:28;100823.25;;;22.55;58.33
13934;BME280;7039;52.168;9.866;2022-10-30T10:56:56;100809.88;;;22.46;58.60
13934;BME280;7039;52.168;9.866;2022-10-30T10:59:32;100810.53;;;22.58;57.27
13934;BME280;7039;52.168;9.866;2022-10-30T11:02:22;100797.75;;;22.62;57.88
13934;BME280;7039;52.168;9.866;2022-10-30T11:04:51;100794.28;;;22.61;57.63
13934;BME280;7039;52.168;9.866;2022-10-30T11:07:21;100780.53;;;22.66;58.16
13934;BME280;7039;52.168;9.866;2022-10-30T11:09:50;100785.22;;;22.82;57.78
13934;BME280;7039;52.168;9.866;2022-10-30T11:12:20;100789.63;;;23.01;58.42
13934;BME280;7039;52.168;9.866;2022-10-30T11:14:49;100788.72;;;23.10;58.18
13934;BME280;7039;52.168;9.866;2022-10-30T11:17:20;100776.75;;;23.14;57.14
13934;BME280;7039;52.168;9.866;2022-10-30T11:19:56;100776.78;;;23.32;57.60
13934;BME280;7039;52.168;9.866;2022-10-30T11:22:29;100778.59;;;23.49;56.88
13934;BME280;7039;52.168;9.866;2022-10-30T11:25:17;100779.84;;;23.55;55.63
13934;BME280;7039;52.168;9.866;2022-10-30T11:27:45;100780.72;;;23.46;55.52
13934;BME280;7039;52.168;9.866;2022-10-30T11:30:18;100768.25;;;23.64;56.14
13934;BME280;7039;52.168;9.866;2022-10-30T11:32:44;100772.44;;;23.85;54.80
13934;BME280;7039;52.168;9.866;2022-10-30T11:35:12;100760.31;;;23.72;54.88
13934;BME280;7039;52.168;9.866;2022-10-30T11:38:17;100757.16;;;23.51;54.42
13934;BME280;7039;52.168;9.866;2022-10-30T11:40:46;100758.34;;;23.74;53.43
13934;BME280;7039;52.168;9.866;2022-10-30T11:43:18;100749.50;;;23.92;52.89
13934;BME280;7039;52.168;9.866;2022-10-30T11:45:48;100748.53;;;24.01;54.06
13934;BME280;7039;52.168;9.866;2022-10-30T11:48:20;100757.66;;;24.25;54.06
13934;BME280;7039;52.168;9.866;2022-10-30T11:50:49;100745.47;;;24.48;55.27
13934;BME280;7039;52.168;9.866;2022-10-30T11:53:21;100752.00;;;24.54;53.59
13934;BME280;7039;52.168;9.866;2022-10-30T11:55:54;100741.47;;;24.52;51.98
13934;BME280;7039;52.168;9.866;2022-10-30T11:58:23;100740.00;;;24.58;52.27
13934;BME280;7039;52.168;9.866;2022-10-30T12:01:03;100756.44;;;24.88;51.26
13934;BME280;7039;52.168;9.866;2022-10-30T12:03:34;100755.78;;;24.94;51.77
13934;BME280;7039;52.168;9.866;2022-10-30T12:06:09;100751.09;;;24.88;51.44
13934;BME280;7039;52.168;9.866;2022-10-30T12:08:36;100753.94;;;24.94;53.22
13934;BME280;7039;52.168;9.866;2022-10-30T12:11:04;100744.84;;;25.21;52.63
13934;BME280;7039;52.168;9.866;2022-10-30T12:13:37;100749.69;;;25.26;52.31
13934;BME280;7039;52.168;9.866;2022-10-30T12:16:08;100737.34;;;25.33;51.35
13934;BME280;7039;52.168;9.866;2022-10-30T12:18:38;100742.50;;;25.51;53.89
13934;BME280;7039;52.168;9.866;2022-10-30T12:21:05;100729.66;;;25.47;54.06
13934;BME280;7039;52.168;9.866;2022-10-30T12:23:33;100732.00;;;25.33;53.06
13934;BME280;7039;52.168;9.866;2022-10-30T12:26:07;100730.97;;;25.59;54.11
13934;BME280;7039;52.168;9.866;2022-10-30T12:28:35;100718.66;;;25.33;51.72
13934;BME280;7039;52.168;9.866;2022-10-30T12:31:08;100720.16;;;25.28;54.17
13934;BME280;7039;52.168;9.866;2022-10-30T12:33:40;100722.81;;;25.60;54.25
13934;BME280;7039;52.168;9.866;2022-10-30T12:36:11;100715.09;;;25.90;55.60
13934;BME280;7039;52.168;9.866;2022-10-30T12:38:42;100703.53;;;25.98;55.47
13934;BME280;7039;52.168;9.866;2022-10-30T12:41:14;100706.47;;;26.28;55.06
13934;BME280;7039;52.168;9.866;2022-10-30T12:43:47;100695.94;;;26.18;52.86
13934;BME280;7039;52.168;9.866;2022-10-30T12:46:30;100692.97;;;26.13;54.27
13934;BME280;7039;52.168;9.866;2022-10-30T12:49:07;100692.53;;;25.93;53.67
13934;BME280;7039;52.168;9.866;2022-10-30T12:51:41;100681.72;;;25.70;52.95
13934;BME280;7039;52.168;9.866;2022-10-30T12:54:16;100689.88;;;25.68;54.47
13934;BME280;7039;52.168;9.866;2022-10-30T12:56:49;100682.38;;;25.63;53.77
13934;BME280;7039;52.168;9.866;2022-10-30T12:59:29;100677.38;;;25.52;54.71
13934;BME280;7039;52.168;9.866;2022-10-30T13:02:08;100681.19;;;25.74;54.01
13934;BME280;7039;52.168;9.866;2022-10-30T13:04:39;100676.00;;;25.73;54.87
13934;BME280;7039;52.168;9.866;2022-10-30T13:07:12;100677.53;;;25.75;54.79
13934;BME280;7039;52.168;9.866;2022-10-30T13:09:47;100674.56;;;25.62;54.88
13934;BME280;7039;52.168;9.866;2022-10-30T13:12:17;100671.69;;;25.80;53.36
13934;BME280;7039;52.168;9.866;2022-10-30T13:14:48;100681.00;;;25.84;55.31
13934;BME280;7039;52.168;9.866;2022-10-30T13:17:17;100680.34;;;25.82;54.29
13934;BME280;7039;52.168;9.866;2022-10-30T13:19:44;100678.78;;;26.04;53.59
13934;BME280;7039;52.168;9.866;2022-10-30T13:22:15;100669.00;;;25.88;52.76
13934;BME280;7039;52.168;9.866;2022-10-30T13:24:51;100677.13;;;25.87;52.93
13934;BME280;7039;52.168;9.866;2022-10-30T13:27:27;100674.28;;;26.04;52.34
13934;BME280;7039;52.168;9.866;2022-10-30T13:30:03;100674.22;;;26.21;53.49
13934;BME280;7039;52.168;9.866;2022-10-30T13:32:40;100679.19;;;26.32;52.37
13934;BME280;7039;52.168;9.866;2022-10-30T13:35:18;100675.38;;;26.27;51.33
13934;BME280;7039;52.168;9.866;2022-10-30T13:37:52;100675.19;;;26.28;51.55
13934;BME280;7039;52.168;9.866;2022-10-30T13:40:30;100672.09;;;26.16;52.23
13934;BME280;7039;52.168;9.866;2022-10-30T13:43:05;100675.59;;;26.17;51.62
13934;BME280;7039;52.168;9.866;2022-10-30T13:48:52;100675.09;;;26.13;52.72
13934;BME280;7039;52.168;9.866;2022-10-30T13:51:31;100667.50;;;26.25;51.32
13934;BME280;7039;52.168;9.866;2022-10-30T13:54:08;100674.00;;;26.31;52.51
13934;BME280;7039;52.168;9.866;2022-10-30T13:56:36;100674.09;;;26.45;53.00
13934;BME280;7039;52.168;9.866;2022-10-30T13:59:10;100679.00;;;26.34;52.25
13934;BME280;7039;52.168;9.866;2022-10-30T14:01:47;100675.75;;;26.46;52.34
13934;BME280;7039;52.168;9.866;2022-10-30T14:04:22;100673.59;;;26.11;53.65
13934;BME280;7039;52.168;9.866;2022-10-30T14:06:55;100674.13;;;26.06;52.11
13934;BME280;7039;52.168;9.866;2022-10-30T14:09:27;100677.47;;;26.00;53.31
13934;BME280;7039;52.168;9.866;2022-10-30T14:12:00;100672.50;;;25.72;53.92
13934;BME280;7039;52.168;9.866;2022-10-30T14:14:28;100666.03;;;25.50;54.33
13934;BME280;7039;52.168;9.866;2022-10-30T14:17:10;100677.41;;;25.36;55.28
13934;BME280;7039;52.168;9.866;2022-10-30T14:20:24;100673.06;;;25.18;56.10
13934;BME280;7039;52.168;9.866;2022-10-30T14:23:10;100672.56;;;25.15;54.79
13934;BME280;7039;52.168;9.866;2022-10-30T14:25:38;100675.38;;;25.13;56.46
13934;BME280;7039;52.168;9.866;2022-10-30T14:28:05;100675.75;;;25.35;55.79
13934;BME280;7039;52.168;9.866;2022-10-30T14:30:43;100670.56;;;25.25;55.76
13934;BME280;7039;52.168;9.866;2022-10-30T14:33:32;100665.38;;;24.99;57.09
13934;BME280;7039;52.168;9.866;2022-10-30T14:36:14;100669.69;;;24.67;57.15
13934;BME280;7039;52.168;9.866;2022-10-30T14:38:41;100670.72;;;24.32;58.18
13934;BME280;7039;52.168;9.866;2022-10-30T14:41:36;100668.72;;;24.26;59.02
13934;BME280;7039;52.168;9.866;2022-10-30T14:44:42;100674.19;;;24.24;59.60
13934;BME280;7039;52.168;9.866;2022-10-30T14:47:42;100667.06;;;23.90;60.32
13934;BME280;7039;52.168;9.866;2022-10-30T14:50:17;100670.88;;;23.88;60.40
13934;BME280;7039;52.168;9.866;2022-10-30T14:52:59;100666.06;;;23.65;60.55
13934;BME280;7039;52.168;9.866;2022-10-30T14:55:32;100672.09;;;23.49;62.10
13934;BME280;7039;52.168;9.866;2022-10-30T14:58:20;100660.34;;;23.34;61.53
13934;BME280;7039;52.168;9.866;2022-10-30T15:00:49;100669.22;;;23.17;61.79
13934;BME280;7039;52.168;9.866;2022-10-30T15:03:32;100660.16;;;23.09;62.69
13934;BME280;7039;52.168;9.866;2022-10-30T15:06:14;100666.25;;;23.02;62.92
13934;BME280;7039;52.168;9.866;2022-10-30T15:08:59;100668.22;;;23.00;62.61
13934;BME280;7039;52.168;9.866;2022-10-30T15:11:43;100668.06;;;23.01;62.68
13934;BME280;7039;52.168;9.866;2022-10-30T15:14:20;100665.56;;;23.00;63.06
13934;BME280;7039;52.168;9.866;2022-10-30T15:16:50;100659.25;;;22.83;63.17
13934;BME280;7039;52.168;9.866;2022-10-30T15:19:18;100662.63;;;22.75;63.59
13934;BME280;7039;52.168;9.866;2022-10-30T15:21:48;100667.28;;;22.55;64.43
13934;BME280;7039;52.168;9.866;2022-10-30T15:24:19;100668.16;;;22.46;64.83
13934;BME280;7039;52.168;9.866;2022-10-30T15:26:48;100666.59;;;22.16;65.28
13934;BME280;7039;52.168;9.866;2022-10-30T15:29:17;100662.63;;;22.02;65.97
13934;BME280;7039;52.168;9.866;2022-10-30T15:31:44;100666.34;;;21.81;66.10
13934;BME280;7039;52.168;9.866;2022-10-30T15:34:22;100668.22;;;21.52;66.61
13934;BME280;7039;52.168;9.866;2022-10-30T15:36:48;100671.59;;;21.24;68.39
13934;BME280;7039;52.168;9.866;2022-10-30T15:39:16;100668.38;;;21.11;68.80
13934;BME280;7039;52.168;9.866;2022-10-30T15:41:46;100668.81;;;20.87;70.46
13934;BME280;7039;52.168;9.866;2022-10-30T15:44:15;100662.78;;;20.75;71.02
13934;BME280;7039;52.168;9.866;2022-10-30T15:46:44;100672.38;;;20.57;70.54
13934;BME280;7039;52.168;9.866;2022-10-30T15:49:14;100663.88;;;20.53;71.04
13934;BME280;7039;52.168;9.866;2022-10-30T15:51:43;100672.06;;;20.40;69.83
13934;BME280;7039;52.168;9.866;2022-10-30T15:54:11;100669.06;;;20.24;70.24
13934;BME280;7039;52.168;9.866;2022-10-30T15:56:42;100662.91;;;20.14;70.11
13934;BME280;7039;52.168;9.866;2022-10-30T15:59:16;100660.63;;;19.99;70.25
13934;BME280;7039;52.168;9.866;2022-10-30T16:01:45;100669.69;;;19.97;70.92
13934;BME280;7039;52.168;9.866;2022-10-30T16:04:14;100662.53;;;19.88;70.87
13934;BME280;7039;52.168;9.866;2022-10-30T16:06:48;100663.94;;;19.92;70.80
13934;BME280;7039;52.168;9.866;2022-10-30T16:09:14;100665.81;;;19.80;71.33
13934;BME280;7039;52.168;9.866;2022-10-30T16:11:41;100669.75;;;19.86;71.27
13934;BME280;7039;52.168;9.866;2022-10-30T16:14:14;100664.88;;;19.81;71.45
13934;BME280;7039;52.168;9.866;2022-10-30T16:16:42;100664.81;;;19.71;72.19
13934;BME280;7039;52.168;9.866;2022-10-30T16:19:18;100670.59;;;19.65;72.54
13934;BME280;7039;52.168;9.866;2022-10-30T16:21:46;100673.31;;;19.54;72.97
13934;BME280;7039;52.168;9.866;2022-10-30T16:24:13;100667.38;;;19.40;73.26
13934;BME280;7039;52.168;9.866;2022-10-30T16:26:40;100676.53;;;19.36;73.93
13934;BME280;7039;52.168;9.866;2022-10-30T16:29:19;100686.94;;;19.28;75.14
13934;BME280;7039;52.168;9.866;2022-10-30T16:31:47;100680.25;;;19.13;74.66
13934;BME280;7039;52.168;9.866;2022-10-30T16:34:20;100687.84;;;19.06;75.43